Pride of Baltimore II — WUW2120 — position and weather

sailwx.info

Track history (hours):
 
Tides and Currents Weather Stations Pressure Air Temp Water Temp Dewpoint Dewpoint Depression Visibility Wind Speed Wind Dir Waves Ship Positions

Pride of Baltimore II (United States)

Reproduction of an 1812-era Baltimore Clipper privateer.

Ship's website: http://www.pride2.org/

Owner: PRIDE OF BALTIMORE INC, BALTIMORE, MD. More information available from US FCC via Universal Licensing System and Coast Guard Vessel Documentation Center.

Last reported at 2017-May-19 10:58 UTC. Time now 2017-May-29 11:30 UTC.
Position N 32°51' W 079°57'.
Warning: this ship's position is 10 days out of date.

Type: Sailing vessel. MMSI: 303302000.

Date/timePositionNaut miles runAvg speedWind from/ knotsBaromVisibWave heightAir tempDewpointWater temp
2017-May-19 10:58N 32°51' W 079°57'0 0.0
2017-May-19 10:19N 32°51' W 079°57'0 0.0
2017-May-19 09:48N 32°51' W 079°57'0 0.0
2017-May-19 09:10N 32°51' W 079°57'0 0.0
2017-May-19 08:53N 32°51' W 079°57'0 0.0
2017-May-19 08:28N 32°51' W 079°57'0 0.0
2017-May-19 08:00N 32°51' W 079°57'0 0.0
2017-May-19 06:54N 32°51' W 079°57'0 0.0
2017-May-19 06:26N 32°51' W 079°57'0 0.0
2017-May-19 05:58N 32°51' W 079°57'0 0.0
2017-May-19 05:02N 32°51' W 079°57'0 0.1
2017-May-19 04:59N 32°51' W 079°57'0 0.0
2017-May-19 04:30N 32°51' W 079°57'32 0.8
2017-May-17 09:40N 32°46' W 079°19'35 6.4
2017-May-17 04:06N 32°49' W 078°37'26 7.8
2017-May-17 00:49N 32°50' W 078°07'5 7.6
2017-May-17 00:10N 32°50' W 078°01'3 7.9
2017-May-16 23:48N 32°49' W 077°57'15 3.0
2017-May-16 18:47N 32°55' W 077°41'33 6.3
2017-May-16 13:33N 33°28' W 077°38'21 6.2
2017-May-16 10:09N 33°45' W 077°23'1 6.1
2017-May-16 10:00N 33°46' W 077°23'47 6.2
2017-May-16 02:32N 34°15' W 076°39'0 7.0
2017-May-16 02:30N 34°15' W 076°39'4 6.9
2017-May-16 01:54N 34°18' W 076°35'3 7.0
2017-May-16 01:30N 34°20' W 076°32'4 7.2
2017-May-16 00:59N 34°22' W 076°28'6 7.5
2017-May-16 00:12N 34°25' W 076°23'79 5.6
2017-May-15 10:00N 35°24' W 075°18'43 2.7 130 / 111011.310.8 15.913.6 9.0
2017-May-14 18:00N 36°06' W 075°30'42 8.1 260 / 111009.210.8 15.411.1 6.5
2017-May-14 12:46N 36°44' W 075°52'1 4.6
2017-May-14 12:30N 36°45' W 075°53'2 4.0
2017-May-14 11:59N 36°47' W 075°54'3 6.2
2017-May-14 11:30N 36°50' W 075°55'3 6.7
2017-May-14 11:00N 36°53' W 075°57'6426.1
2017-May-14 11:00N 36°48' W 075°54'918.0 110 / 111011.5 0.6 18.018.0
2017-May-14 10:30N 36°56' W 075°59'3 6.6
2017-May-14 10:00N 36°59' W 076°01'3 6.5
2017-May-14 09:30N 37°01' W 076°03'23 5.0
2017-May-14 05:00N 37°24' W 076°06'34 9.4 340 / 151009.510.8 12.1 4.7 7.0
2017-May-14 01:20N 37°58' W 076°12'3 8.0
2017-May-14 00:59N 38°01' W 076°13'4 8.0
2017-May-14 00:30N 38°05' W 076°14'4 8.4
2017-May-14 00:00N 38°09' W 076°15'40 7.8
2017-May-13 18:50N 38°47' W 076°29'3 8.4
2017-May-13 18:30N 38°50' W 076°27'5 9.2
2017-May-13 17:57N 38°55' W 076°25'4 9.3
2017-May-13 17:30N 38°59' W 076°23'5 8.7
2017-May-13 16:54N 39°04' W 076°22'3 8.4
2017-May-13 16:30N 39°07' W 076°24'4 8.1
2017-May-13 16:00N 39°11' W 076°26'5 9.3
2017-May-13 15:30N 39°13' W 076°31'4 7.7
2017-May-13 15:00N 39°16' W 076°35'2 3.3
2017-May-13 14:30N 39°17' W 076°36'2 1.7
2017-May-13 13:30N 39°16' W 076°34'0 0.0
2017-May-13 13:00N 39°16' W 076°34'0 0.0
2017-May-13 12:30N 39°16' W 076°34'0 0.0
2017-May-13 12:00N 39°16' W 076°34'0 0.0
2017-May-13 11:30N 39°16' W 076°34'0 0.0
2017-May-13 10:54N 39°16' W 076°34'0 0.0
2017-May-13 10:30N 39°16' W 076°34'0 0.0
2017-May-13 09:45N 39°16' W 076°34'0 0.0
2017-May-13 09:24N 39°16' W 076°34'0 0.0
2017-May-13 09:00N 39°16' W 076°34'0 0.0
2017-May-13 08:24N 39°16' W 076°34'0 0.0
2017-May-13 08:00N 39°16' W 076°34'0 0.0
2017-May-13 07:30N 39°16' W 076°34'0 0.0
2017-May-13 07:00N 39°16' W 076°34'0 0.0
2017-May-13 06:30N 39°16' W 076°34'0 0.0
2017-May-13 06:00N 39°16' W 076°34'0 0.0
2017-May-13 05:30N 39°16' W 076°34'0 0.0
2017-May-13 05:00N 39°16' W 076°34'0 0.0
2017-May-13 04:30N 39°16' W 076°34'0 0.0
2017-May-13 04:00N 39°16' W 076°34'0 0.0
2017-May-13 03:30N 39°16' W 076°34'0 0.0
2017-May-13 03:00N 39°16' W 076°34'0 0.0
2017-May-13 02:30N 39°16' W 076°34'0 0.0
2017-May-13 02:00N 39°16' W 076°34'0 0.0
2017-May-13 01:30N 39°16' W 076°34'0 0.0
2017-May-13 01:00N 39°16' W 076°34'0 0.0
2017-May-13 00:30N 39°16' W 076°34'0 0.0
2017-May-13 00:00N 39°16' W 076°34'0 0.0
2017-May-12 23:30N 39°16' W 076°34'0 0.0
2017-May-12 23:00N 39°16' W 076°34'0 0.0
2017-May-12 22:30N 39°16' W 076°34'0 0.0
2017-May-12 22:00N 39°16' W 076°34'0 0.0
2017-May-12 21:30N 39°16' W 076°34'0 0.0
2017-May-12 21:00N 39°16' W 076°34'0 0.7
2017-May-12 20:31N 39°16' W 076°34'0 0.3
2017-May-12 20:00N 39°16' W 076°35'0 0.6
2017-May-12 19:30N 39°15' W 076°35'0 0.9
2017-May-12 19:00N 39°16' W 076°34'0 0.5
2017-May-12 18:30N 39°16' W 076°35'0 0.0
2017-May-12 17:59N 39°16' W 076°35'0 0.0
2017-May-12 17:29N 39°16' W 076°35'0 0.0
2017-May-12 16:59N 39°16' W 076°35'0 0.0
2017-May-12 16:29N 39°16' W 076°35'0 0.0
2017-May-12 15:59N 39°16' W 076°35'0 0.0
2017-May-12 15:29N 39°16' W 076°35'0 0.0
2017-May-12 14:59N 39°16' W 076°35'0 0.0
2017-May-12 13:59N 39°16' W 076°35'0 0.0
2017-May-12 13:29N 39°16' W 076°35'0 0.0
2017-May-12 12:59N 39°16' W 076°35'0 0.1
2017-May-12 12:31N 39°16' W 076°35'0 0.8
2017-May-12 12:00N 39°16' W 076°34'0 0.0
2017-May-12 11:30N 39°16' W 076°34'0 0.0
2017-May-12 11:00N 39°16' W 076°34'0 0.0
2017-May-12 10:30N 39°16' W 076°34'0 0.0
2017-May-12 09:54N 39°16' W 076°34'0 0.0
2017-May-12 09:30N 39°16' W 076°34'0 0.0
2017-May-12 09:00N 39°16' W 076°34'0 0.0
2017-May-12 08:30N 39°16' W 076°34'0 0.0
2017-May-12 08:00N 39°16' W 076°34'0 0.0
2017-May-12 07:30N 39°16' W 076°34'0 0.0
2017-May-12 07:00N 39°16' W 076°34'0 0.0
2017-May-12 06:30N 39°16' W 076°34'0 0.0
2017-May-12 06:00N 39°16' W 076°34'0 0.0
2017-May-12 05:24N 39°16' W 076°34'0 0.0
2017-May-12 04:57N 39°16' W 076°34'0 0.0
2017-May-12 04:30N 39°16' W 076°34'0 0.0
2017-May-12 04:00N 39°16' W 076°34'0 0.0
2017-May-12 03:30N 39°16' W 076°34'0 0.0
2017-May-12 03:00N 39°16' W 076°34'0 0.0
2017-May-12 02:30N 39°16' W 076°34'0 0.0
2017-May-12 02:00N 39°16' W 076°34'0 0.0
2017-May-12 01:30N 39°16' W 076°34'0 0.0
2017-May-12 01:00N 39°16' W 076°34'0 0.0
2017-May-12 00:30N 39°16' W 076°34'0 0.0
2017-May-12 00:00N 39°16' W 076°34'0 0.0
2017-May-11 23:30N 39°16' W 076°34'0 0.0
2017-May-11 23:00N 39°16' W 076°34'0 0.0
2017-May-11 22:30N 39°16' W 076°34'0 0.0
2017-May-11 22:00N 39°16' W 076°34'0 0.0
2017-May-11 21:30N 39°16' W 076°34'0 0.0
2017-May-11 21:00N 39°16' W 076°34'0 0.0
2017-May-11 20:30N 39°16' W 076°34'0 0.0
2017-May-11 20:00N 39°16' W 076°34'0 0.0
2017-May-11 19:30N 39°16' W 076°34'0 0.0
2017-May-11 19:00N 39°16' W 076°34'1 1.4
2017-May-11 18:31N 39°17' W 076°35'0 0.0
2017-May-11 16:17N 39°17' W 076°35'0 0.1
2017-May-11 16:00N 39°17' W 076°35'1 1.2
2017-May-11 15:30N 39°16' W 076°35'0 0.0
2017-May-11 15:00N 39°16' W 076°35'0 0.0
2017-May-11 14:00N 39°16' W 076°35'0 0.0
2017-May-11 13:30N 39°16' W 076°35'0 0.0
2017-May-11 12:51N 39°16' W 076°35'0 0.0
2017-May-11 12:30N 39°16' W 076°35'0 0.8
2017-May-11 11:58N 39°16' W 076°34'0 0.0
2017-May-11 11:31N 39°16' W 076°34'0 0.0
2017-May-11 10:58N 39°16' W 076°34'0 0.0
2017-May-11 10:30N 39°16' W 076°34'0 0.0
2017-May-11 10:00N 39°16' W 076°34'0 0.0
2017-May-11 09:30N 39°16' W 076°34'0 0.0
2017-May-11 09:00N 39°16' W 076°34'0 0.0
2017-May-11 08:30N 39°16' W 076°34'0 0.0
2017-May-11 08:00N 39°16' W 076°34'0 0.0
2017-May-11 07:30N 39°16' W 076°34'0 0.0
2017-May-11 07:00N 39°16' W 076°34'0 0.0
2017-May-11 06:30N 39°16' W 076°34'0 0.0
2017-May-11 06:00N 39°16' W 076°34'0 0.0
2017-May-11 05:30N 39°16' W 076°34'0 0.0
2017-May-11 05:00N 39°16' W 076°34'0 0.0
2017-May-11 04:30N 39°16' W 076°34'0 0.2
2017-May-11 04:01N 39°16' W 076°34'3 6.4
2017-May-11 03:30N 39°13' W 076°32'4 7.9
2017-May-11 03:00N 39°11' W 076°28'4 7.9
2017-May-11 02:30N 39°08' W 076°24'4 7.8
2017-May-11 02:00N 39°05' W 076°23'4 7.4
2017-May-11 01:30N 39°01' W 076°23'3 6.9
2017-May-11 01:00N 38°58' W 076°25'3 2.1
2017-May-10 23:44N 38°59' W 076°28'1 3.5
2017-May-10 23:30N 38°58' W 076°28'1 2.7
2017-May-10 23:01N 38°57' W 076°26'2 2.4
2017-May-10 22:16N 38°58' W 076°28'0 0.1
2017-May-10 18:05N 38°59' W 076°28'1 7.8
2017-May-10 18:00N 38°58' W 076°28'4 7.1
2017-May-10 17:30N 38°59' W 076°23'4 8.3
2017-May-10 17:00N 39°04' W 076°23'4 8.2
2017-May-10 16:30N 39°07' W 076°24'4 7.6
2017-May-10 16:00N 39°11' W 076°26'4 7.3
2017-May-10 15:30N 39°12' W 076°31'4 7.4
2017-May-10 15:01N 39°15' W 076°34'1 1.0
2017-May-10 13:58N 39°16' W 076°34'0 0.6
2017-May-10 13:30N 39°16' W 076°35'1 1.6
2017-May-10 13:00N 39°15' W 076°35'1 1.7
2017-May-10 12:28N 39°16' W 076°34'0 0.0
2017-May-10 11:58N 39°16' W 076°34'0 0.0
2017-May-10 11:28N 39°16' W 076°34'0 0.0
2017-May-10 10:58N 39°16' W 076°34'0 0.0
2017-May-10 10:28N 39°16' W 076°34'0 0.0
2017-May-10 09:58N 39°16' W 076°34'0 0.0
2017-May-10 09:28N 39°16' W 076°34'0 0.0
2017-May-10 08:58N 39°16' W 076°34'0 0.0
2017-May-10 08:28N 39°16' W 076°34'0 0.0
2017-May-10 07:58N 39°16' W 076°34'0 0.0
2017-May-10 07:28N 39°16' W 076°34'0 0.0
2017-May-10 06:58N 39°16' W 076°34'0 0.0
2017-May-10 06:28N 39°16' W 076°34'0 0.0
2017-May-10 05:58N 39°16' W 076°34'0 0.0
2017-May-10 05:28N 39°16' W 076°34'0 0.0
2017-May-10 04:58N 39°16' W 076°34'0 0.0
2017-May-10 04:28N 39°16' W 076°34'0 0.0
2017-May-10 03:58N 39°16' W 076°34'0 0.0
2017-May-10 03:28N 39°16' W 076°34'0 0.0
2017-May-10 02:58N 39°16' W 076°34'0 0.0
2017-May-10 02:28N 39°16' W 076°34'0 0.0
2017-May-10 01:58N 39°16' W 076°34'0 0.0
2017-May-10 01:28N 39°16' W 076°34'0 0.0
2017-May-10 00:58N 39°16' W 076°34'0 0.0
2017-May-10 00:28N 39°16' W 076°34'0 0.0
2017-May-09 23:58N 39°16' W 076°34'0 0.0
2017-May-09 23:28N 39°16' W 076°34'0 0.0
2017-May-09 22:58N 39°16' W 076°34'0 0.0
2017-May-09 22:28N 39°16' W 076°34'0 0.0
2017-May-09 21:58N 39°16' W 076°34'0 0.0
2017-May-09 21:28N 39°16' W 076°34'0 0.0
2017-May-09 21:01N 39°16' W 076°34'0 0.0
2017-May-09 20:31N 39°16' W 076°34'0 0.0
2017-May-09 20:00N 39°16' W 076°34'0 0.0
2017-May-09 19:30N 39°16' W 076°34'0 0.0
2017-May-09 19:00N 39°16' W 076°34'0 0.0
2017-May-09 18:30N 39°16' W 076°34'0 0.0
2017-May-09 18:00N 39°16' W 076°34'0 0.0
2017-May-09 17:30N 39°16' W 076°34'0 0.0
2017-May-09 17:00N 39°16' W 076°34'0 0.0
2017-May-09 16:30N 39°16' W 076°34'0 0.0
2017-May-09 16:00N 39°16' W 076°34'0 0.0
2017-May-09 15:30N 39°16' W 076°34'0 0.0
2017-May-09 15:00N 39°16' W 076°34'0 0.0
2017-May-09 14:00N 39°16' W 076°34'0 0.0
2017-May-09 13:30N 39°16' W 076°34'0 0.0
2017-May-09 12:57N 39°16' W 076°34'0 0.0
2017-May-09 12:30N 39°16' W 076°34'0 0.0
2017-May-09 12:00N 39°16' W 076°34'0 0.0
2017-May-09 11:30N 39°16' W 076°34'0 0.0
2017-May-09 11:00N 39°16' W 076°34'  
Track history (hours):
 
Tides and Currents Weather Stations Pressure Air Temp Water Temp Dewpoint Dewpoint Depression Visibility Wind Speed Wind Dir Waves Ship Positions

Pride of Baltimore II (United States)

Reproduction of an 1812-era Baltimore Clipper privateer.

Ship's website: http://www.pride2.org/

Owner: PRIDE OF BALTIMORE INC, BALTIMORE, MD. More information available from US FCC via Universal Licensing System and Coast Guard Vessel Documentation Center.

Last reported at 2017-May-19 10:58 UTC. Time now 2017-May-29 11:30 UTC.
Position N 32°51' W 079°57'.
Warning: this ship's position is 10 days out of date.

Type: Sailing vessel. MMSI: 303302000.

Date/timePositionNaut miles runAvg speedWind from/ knotsBaromVisibWave heightAir tempDewpointWater temp
2017-May-19 10:58N 32°51' W 079°57'0 0.0
2017-May-19 10:19N 32°51' W 079°57'0 0.0
2017-May-19 09:48N 32°51' W 079°57'0 0.0
2017-May-19 09:10N 32°51' W 079°57'0 0.0
2017-May-19 08:53N 32°51' W 079°57'0 0.0
2017-May-19 08:28N 32°51' W 079°57'0 0.0
2017-May-19 08:00N 32°51' W 079°57'0 0.0
2017-May-19 06:54N 32°51' W 079°57'0 0.0
2017-May-19 06:26N 32°51' W 079°57'0 0.0
2017-May-19 05:58N 32°51' W 079°57'0 0.0
2017-May-19 05:02N 32°51' W 079°57'0 0.1
2017-May-19 04:59N 32°51' W 079°57'0 0.0
2017-May-19 04:30N 32°51' W 079°57'32 0.8
2017-May-17 09:40N 32°46' W 079°19'35 6.4
2017-May-17 04:06N 32°49' W 078°37'26 7.8
2017-May-17 00:49N 32°50' W 078°07'5 7.6
2017-May-17 00:10N 32°50' W 078°01'3 7.9
2017-May-16 23:48N 32°49' W 077°57'15 3.0
2017-May-16 18:47N 32°55' W 077°41'33 6.3
2017-May-16 13:33N 33°28' W 077°38'21 6.2
2017-May-16 10:09N 33°45' W 077°23'1 6.1
2017-May-16 10:00N 33°46' W 077°23'47 6.2
2017-May-16 02:32N 34°15' W 076°39'0 7.0
2017-May-16 02:30N 34°15' W 076°39'4 6.9
2017-May-16 01:54N 34°18' W 076°35'3 7.0
2017-May-16 01:30N 34°20' W 076°32'4 7.2
2017-May-16 00:59N 34°22' W 076°28'6 7.5
2017-May-16 00:12N 34°25' W 076°23'79 5.6
2017-May-15 10:00N 35°24' W 075°18'43 2.7 130 / 111011.310.8 15.913.6 9.0
2017-May-14 18:00N 36°06' W 075°30'42 8.1 260 / 111009.210.8 15.411.1 6.5
2017-May-14 12:46N 36°44' W 075°52'1 4.6
2017-May-14 12:30N 36°45' W 075°53'2 4.0
2017-May-14 11:59N 36°47' W 075°54'3 6.2
2017-May-14 11:30N 36°50' W 075°55'3 6.7
2017-May-14 11:00N 36°53' W 075°57'6426.1
2017-May-14 11:00N 36°48' W 075°54'918.0 110 / 111011.5 0.6 18.018.0
2017-May-14 10:30N 36°56' W 075°59'3 6.6
2017-May-14 10:00N 36°59' W 076°01'3 6.5
2017-May-14 09:30N 37°01' W 076°03'23 5.0
2017-May-14 05:00N 37°24' W 076°06'34 9.4 340 / 151009.510.8 12.1 4.7 7.0
2017-May-14 01:20N 37°58' W 076°12'3 8.0
2017-May-14 00:59N 38°01' W 076°13'4 8.0
2017-May-14 00:30N 38°05' W 076°14'4 8.4
2017-May-14 00:00N 38°09' W 076°15'40 7.8
2017-May-13 18:50N 38°47' W 076°29'3 8.4
2017-May-13 18:30N 38°50' W 076°27'5 9.2
2017-May-13 17:57N 38°55' W 076°25'4 9.3
2017-May-13 17:30N 38°59' W 076°23'5 8.7
2017-May-13 16:54N 39°04' W 076°22'3 8.4
2017-May-13 16:30N 39°07' W 076°24'4 8.1
2017-May-13 16:00N 39°11' W 076°26'5 9.3
2017-May-13 15:30N 39°13' W 076°31'4 7.7
2017-May-13 15:00N 39°16' W 076°35'2 3.3
2017-May-13 14:30N 39°17' W 076°36'2 1.7
2017-May-13 13:30N 39°16' W 076°34'0 0.0
2017-May-13 13:00N 39°16' W 076°34'0 0.0
2017-May-13 12:30N 39°16' W 076°34'0 0.0
2017-May-13 12:00N 39°16' W 076°34'0 0.0
2017-May-13 11:30N 39°16' W 076°34'0 0.0
2017-May-13 10:54N 39°16' W 076°34'0 0.0
2017-May-13 10:30N 39°16' W 076°34'0 0.0
2017-May-13 09:45N 39°16' W 076°34'0 0.0
2017-May-13 09:24N 39°16' W 076°34'0 0.0
2017-May-13 09:00N 39°16' W 076°34'0 0.0
2017-May-13 08:24N 39°16' W 076°34'0 0.0
2017-May-13 08:00N 39°16' W 076°34'0 0.0
2017-May-13 07:30N 39°16' W 076°34'0 0.0
2017-May-13 07:00N 39°16' W 076°34'0 0.0
2017-May-13 06:30N 39°16' W 076°34'0 0.0
2017-May-13 06:00N 39°16' W 076°34'0 0.0
2017-May-13 05:30N 39°16' W 076°34'0 0.0
2017-May-13 05:00N 39°16' W 076°34'0 0.0
2017-May-13 04:30N 39°16' W 076°34'0 0.0
2017-May-13 04:00N 39°16' W 076°34'0 0.0
2017-May-13 03:30N 39°16' W 076°34'0 0.0
2017-May-13 03:00N 39°16' W 076°34'0 0.0
2017-May-13 02:30N 39°16' W 076°34'0 0.0
2017-May-13 02:00N 39°16' W 076°34'0 0.0
2017-May-13 01:30N 39°16' W 076°34'0 0.0
2017-May-13 01:00N 39°16' W 076°34'0 0.0
2017-May-13 00:30N 39°16' W 076°34'0 0.0
2017-May-13 00:00N 39°16' W 076°34'0 0.0
2017-May-12 23:30N 39°16' W 076°34'0 0.0
2017-May-12 23:00N 39°16' W 076°34'0 0.0
2017-May-12 22:30N 39°16' W 076°34'0 0.0
2017-May-12 22:00N 39°16' W 076°34'0 0.0
2017-May-12 21:30N 39°16' W 076°34'0 0.0
2017-May-12 21:00N 39°16' W 076°34'0 0.7
2017-May-12 20:31N 39°16' W 076°34'0 0.3
2017-May-12 20:00N 39°16' W 076°35'0 0.6
2017-May-12 19:30N 39°15' W 076°35'0 0.9
2017-May-12 19:00N 39°16' W 076°34'0 0.5
2017-May-12 18:30N 39°16' W 076°35'0 0.0
2017-May-12 17:59N 39°16' W 076°35'0 0.0
2017-May-12 17:29N 39°16' W 076°35'0 0.0
2017-May-12 16:59N 39°16' W 076°35'0 0.0
2017-May-12 16:29N 39°16' W 076°35'0 0.0
2017-May-12 15:59N 39°16' W 076°35'0 0.0
2017-May-12 15:29N 39°16' W 076°35'0 0.0
2017-May-12 14:59N 39°16' W 076°35'0 0.0
2017-May-12 13:59N 39°16' W 076°35'0 0.0
2017-May-12 13:29N 39°16' W 076°35'0 0.0
2017-May-12 12:59N 39°16' W 076°35'0 0.1
2017-May-12 12:31N 39°16' W 076°35'0 0.8
2017-May-12 12:00N 39°16' W 076°34'0 0.0
2017-May-12 11:30N 39°16' W 076°34'0 0.0
2017-May-12 11:00N 39°16' W 076°34'0 0.0
2017-May-12 10:30N 39°16' W 076°34'0 0.0
2017-May-12 09:54N 39°16' W 076°34'0 0.0
2017-May-12 09:30N 39°16' W 076°34'0 0.0
2017-May-12 09:00N 39°16' W 076°34'0 0.0
2017-May-12 08:30N 39°16' W 076°34'0 0.0
2017-May-12 08:00N 39°16' W 076°34'0 0.0
2017-May-12 07:30N 39°16' W 076°34'0 0.0
2017-May-12 07:00N 39°16' W 076°34'0 0.0
2017-May-12 06:30N 39°16' W 076°34'0 0.0
2017-May-12 06:00N 39°16' W 076°34'0 0.0
2017-May-12 05:24N 39°16' W 076°34'0 0.0
2017-May-12 04:57N 39°16' W 076°34'0 0.0
2017-May-12 04:30N 39°16' W 076°34'0 0.0
2017-May-12 04:00N 39°16' W 076°34'0 0.0
2017-May-12 03:30N 39°16' W 076°34'0 0.0
2017-May-12 03:00N 39°16' W 076°34'0 0.0
2017-May-12 02:30N 39°16' W 076°34'0 0.0
2017-May-12 02:00N 39°16' W 076°34'0 0.0
2017-May-12 01:30N 39°16' W 076°34'0 0.0
2017-May-12 01:00N 39°16' W 076°34'0 0.0
2017-May-12 00:30N 39°16' W 076°34'0 0.0
2017-May-12 00:00N 39°16' W 076°34'0 0.0
2017-May-11 23:30N 39°16' W 076°34'0 0.0
2017-May-11 23:00N 39°16' W 076°34'0 0.0
2017-May-11 22:30N 39°16' W 076°34'0 0.0
2017-May-11 22:00N 39°16' W 076°34'0 0.0
2017-May-11 21:30N 39°16' W 076°34'0 0.0
2017-May-11 21:00N 39°16' W 076°34'0 0.0
2017-May-11 20:30N 39°16' W 076°34'0 0.0
2017-May-11 20:00N 39°16' W 076°34'0 0.0
2017-May-11 19:30N 39°16' W 076°34'0 0.0
2017-May-11 19:00N 39°16' W 076°34'1 1.4
2017-May-11 18:31N 39°17' W 076°35'0 0.0
2017-May-11 16:17N 39°17' W 076°35'0 0.1
2017-May-11 16:00N 39°17' W 076°35'1 1.2
2017-May-11 15:30N 39°16' W 076°35'0 0.0
2017-May-11 15:00N 39°16' W 076°35'0 0.0
2017-May-11 14:00N 39°16' W 076°35'0 0.0
2017-May-11 13:30N 39°16' W 076°35'0 0.0
2017-May-11 12:51N 39°16' W 076°35'0 0.0
2017-May-11 12:30N 39°16' W 076°35'0 0.8
2017-May-11 11:58N 39°16' W 076°34'0 0.0
2017-May-11 11:31N 39°16' W 076°34'0 0.0
2017-May-11 10:58N 39°16' W 076°34'0 0.0
2017-May-11 10:30N 39°16' W 076°34'0 0.0
2017-May-11 10:00N 39°16' W 076°34'0 0.0
2017-May-11 09:30N 39°16' W 076°34'0 0.0
2017-May-11 09:00N 39°16' W 076°34'0 0.0
2017-May-11 08:30N 39°16' W 076°34'0 0.0
2017-May-11 08:00N 39°16' W 076°34'0 0.0
2017-May-11 07:30N 39°16' W 076°34'0 0.0
2017-May-11 07:00N 39°16' W 076°34'0 0.0
2017-May-11 06:30N 39°16' W 076°34'0 0.0
2017-May-11 06:00N 39°16' W 076°34'0 0.0
2017-May-11 05:30N 39°16' W 076°34'0 0.0
2017-May-11 05:00N 39°16' W 076°34'0 0.0
2017-May-11 04:30N 39°16' W 076°34'0 0.2
2017-May-11 04:01N 39°16' W 076°34'3 6.4
2017-May-11 03:30N 39°13' W 076°32'4 7.9
2017-May-11 03:00N 39°11' W 076°28'4 7.9
2017-May-11 02:30N 39°08' W 076°24'4 7.8
2017-May-11 02:00N 39°05' W 076°23'4 7.4
2017-May-11 01:30N 39°01' W 076°23'3 6.9
2017-May-11 01:00N 38°58' W 076°25'3 2.1
2017-May-10 23:44N 38°59' W 076°28'1 3.5
2017-May-10 23:30N 38°58' W 076°28'1 2.7
2017-May-10 23:01N 38°57' W 076°26'2 2.4
2017-May-10 22:16N 38°58' W 076°28'0 0.1
2017-May-10 18:05N 38°59' W 076°28'1 7.8
2017-May-10 18:00N 38°58' W 076°28'4 7.1
2017-May-10 17:30N 38°59' W 076°23'4 8.3
2017-May-10 17:00N 39°04' W 076°23'4 8.2
2017-May-10 16:30N 39°07' W 076°24'4 7.6
2017-May-10 16:00N 39°11' W 076°26'4 7.3
2017-May-10 15:30N 39°12' W 076°31'4 7.4
2017-May-10 15:01N 39°15' W 076°34'1 1.0
2017-May-10 13:58N 39°16' W 076°34'0 0.6
2017-May-10 13:30N 39°16' W 076°35'1 1.6
2017-May-10 13:00N 39°15' W 076°35'1 1.7
2017-May-10 12:28N 39°16' W 076°34'0 0.0
2017-May-10 11:58N 39°16' W 076°34'0 0.0
2017-May-10 11:28N 39°16' W 076°34'0 0.0
2017-May-10 10:58N 39°16' W 076°34'0 0.0
2017-May-10 10:28N 39°16' W 076°34'0 0.0
2017-May-10 09:58N 39°16' W 076°34'0 0.0
2017-May-10 09:28N 39°16' W 076°34'0 0.0
2017-May-10 08:58N 39°16' W 076°34'0 0.0
2017-May-10 08:28N 39°16' W 076°34'0 0.0
2017-May-10 07:58N 39°16' W 076°34'0 0.0
2017-May-10 07:28N 39°16' W 076°34'0 0.0
2017-May-10 06:58N 39°16' W 076°34'0 0.0
2017-May-10 06:28N 39°16' W 076°34'0 0.0
2017-May-10 05:58N 39°16' W 076°34'0 0.0
2017-May-10 05:28N 39°16' W 076°34'0 0.0
2017-May-10 04:58N 39°16' W 076°34'0 0.0
2017-May-10 04:28N 39°16' W 076°34'0 0.0
2017-May-10 03:58N 39°16' W 076°34'0 0.0
2017-May-10 03:28N 39°16' W 076°34'0 0.0
2017-May-10 02:58N 39°16' W 076°34'0 0.0
2017-May-10 02:28N 39°16' W 076°34'0 0.0
2017-May-10 01:58N 39°16' W 076°34'0 0.0
2017-May-10 01:28N 39°16' W 076°34'0 0.0
2017-May-10 00:58N 39°16' W 076°34'0 0.0
2017-May-10 00:28N 39°16' W 076°34'0 0.0
2017-May-09 23:58N 39°16' W 076°34'0 0.0
2017-May-09 23:28N 39°16' W 076°34'0 0.0
2017-May-09 22:58N 39°16' W 076°34'0 0.0
2017-May-09 22:28N 39°16' W 076°34'0 0.0
2017-May-09 21:58N 39°16' W 076°34'0 0.0
2017-May-09 21:28N 39°16' W 076°34'0 0.0
2017-May-09 21:01N 39°16' W 076°34'0 0.0
2017-May-09 20:31N 39°16' W 076°34'0 0.0
2017-May-09 20:00N 39°16' W 076°34'0 0.0
2017-May-09 19:30N 39°16' W 076°34'0 0.0
2017-May-09 19:00N 39°16' W 076°34'0 0.0
2017-May-09 18:30N 39°16' W 076°34'0 0.0
2017-May-09 18:00N 39°16' W 076°34'0 0.0
2017-May-09 17:30N 39°16' W 076°34'0 0.0
2017-May-09 17:00N 39°16' W 076°34'0 0.0
2017-May-09 16:30N 39°16' W 076°34'0 0.0
2017-May-09 16:00N 39°16' W 076°34'0 0.0
2017-May-09 15:30N 39°16' W 076°34'0 0.0
2017-May-09 15:00N 39°16' W 076°34'0 0.0
2017-May-09 14:00N 39°16' W 076°34'0 0.0
2017-May-09 13:30N 39°16' W 076°34'0 0.0
2017-May-09 12:57N 39°16' W 076°34'0 0.0
2017-May-09 12:30N 39°16' W 076°34'0 0.0
2017-May-09 12:00N 39°16' W 076°34'0 0.0
2017-May-09 11:30N 39°16' W 076°34'0 0.0
2017-May-09 11:00N 39°16' W 076°34'  

Dump ship's entire track history